This is the latest recevied weather packets stored in our database for station/object SP2NBH-2. If no packets are shown the sender has not sent any weather packets the latest 10 day(s).
| Time | Temp. | Humidity | Pressure | Rain* | Wind** | Luminosity | Snow |
|---|---|---|---|---|---|---|---|
| 1777736830 | 21.67° C | 31% | 1018.7 hPa | - | - | - | - |
| 1777735929 | 21.11° C | 32% | 1019 hPa | - | - | - | - |
| 1777735029 | 22.78° C | 29% | 1019 hPa | - | - | - | - |
| 1777734198 | 23.33° C | 31% | 1019.2 hPa | - | - | - | - |
| 1777734129 | 23.33° C | 31% | 1019.2 hPa | - | - | - | - |
| 1777733292 | 27.22° C | 24% | 1019.2 hPa | - | - | - | - |
| 1777733229 | 27.22° C | 24% | 1019.2 hPa | - | - | - | - |
| 1777731500 | 31.67° C | 18% | 1019.3 hPa | - | - | - | - |
| 1777731440 | 31.67° C | 18% | 1019.3 hPa | - | - | - | - |
| 1777730540 | 30.56° C | 20% | 1019.6 hPa | - | - | - | - |
| 1777729671 | 28.33° C | 23% | 1019.7 hPa | - | - | - | - |
| 1777729640 | 28.33° C | 23% | 1019.7 hPa | - | - | - | - |
| 1777728740 | 26.67° C | 25% | 1019.8 hPa | - | - | - | - |
| 1777727893 | 26.11° C | 26% | 1020.2 hPa | - | - | - | - |
| 1777727840 | 26.11° C | 26% | 1020.2 hPa | - | - | - | - |
| 1777726939 | 26.67° C | 25% | 1020.5 hPa | - | - | - | - |
| 1777726039 | 27.22° C | 23% | 1020.5 hPa | - | - | - | - |
| 1777725219 | 30° C | 20% | 1020.8 hPa | - | - | - | - |
| 1777725139 | 30° C | 20% | 1020.8 hPa | - | - | - | - |
| 1777724276 | 30° C | 20% | 1021 hPa | - | - | - | - |
| 1777724239 | 30° C | 20% | 1021 hPa | - | - | - | - |
| 1777723339 | 33.33° C | 17% | 1021.2 hPa | - | - | - | - |
| 1777722440 | 32.22° C | 17% | 1021.4 hPa | - | - | - | - |
| 1777721529 | 32.78° C | 16% | 1021.5 hPa | - | - | - | - |
| 1777720629 | 30.56° C | 16% | 1022 hPa | - | - | - | - |
* Rain since midnight (hover to see other rain measurements)
** Current wind speed in m/s (hover to see current wind gust speed)